createdAt,value
2023-05-01T00:00:52.887Z,39.96
2023-05-01T00:01:52.868Z,39.32
2023-05-01T00:02:52.963Z,62.20
2023-05-01T00:03:53.196Z,40.12
2023-05-01T00:04:52.841Z,38.99
2023-05-01T00:05:52.827Z,39.80
2023-05-01T00:06:53.517Z,38.83
2023-05-01T00:07:52.822Z,40.12
2023-05-01T00:08:52.802Z,39.80
2023-05-01T00:09:52.783Z,38.83
2023-05-01T00:10:52.777Z,38.03
2023-05-01T00:11:52.766Z,40.28
2023-05-01T00:12:52.773Z,38.99
2023-05-01T00:13:52.746Z,38.03
2023-05-01T00:14:52.726Z,44.15
2023-05-01T00:15:52.762Z,41.41
2023-05-01T00:16:52.969Z,55.75
2023-05-01T00:17:52.722Z,54.46
2023-05-01T00:18:52.690Z,49.15
2023-05-01T00:19:52.677Z,53.01
2023-05-01T00:20:52.675Z,39.64
2023-05-01T00:21:52.674Z,39.80
2023-05-01T00:22:52.672Z,41.73
2023-05-01T00:23:52.640Z,40.28
2023-05-01T00:24:52.627Z,50.60
2023-05-01T00:25:52.648Z,61.87
2023-05-01T00:26:52.610Z,55.27
2023-05-01T00:27:52.601Z,59.46
2023-05-01T00:28:52.585Z,39.64
2023-05-01T00:29:52.576Z,41.41
2023-05-01T00:30:52.572Z,39.80
2023-05-01T00:31:52.621Z,38.99
2023-05-01T00:32:52.581Z,41.25
2023-05-01T00:33:52.532Z,41.89
2023-05-01T00:34:52.525Z,61.07
2023-05-01T00:35:52.510Z,40.12
2023-05-01T00:36:52.503Z,40.44
2023-05-01T00:37:52.500Z,39.32
2023-05-01T00:38:52.488Z,40.28
2023-05-01T00:39:52.472Z,38.99
2023-05-01T00:40:52.462Z,39.48
2023-05-01T00:41:52.449Z,40.93
2023-05-01T00:42:52.451Z,41.73
2023-05-01T00:43:52.433Z,39.64
2023-05-01T00:44:52.435Z,50.27
2023-05-01T00:45:52.455Z,60.26
2023-05-01T00:46:52.401Z,38.67
2023-05-01T00:47:52.413Z,56.07
2023-05-01T00:48:52.377Z,41.89
2023-05-01T00:49:52.368Z,38.83
2023-05-01T00:50:52.354Z,38.67
2023-05-01T00:51:52.347Z,42.06
2023-05-01T00:52:52.345Z,42.22
2023-05-01T00:53:52.328Z,40.61
2023-05-01T00:54:52.312Z,38.67
2023-05-01T00:55:52.299Z,38.67
2023-05-01T00:56:52.320Z,39.48
2023-05-01T00:57:52.291Z,39.64
2023-05-01T00:58:52.269Z,40.44
2023-05-01T00:59:52.260Z,39.96
2023-05-01T01:00:52.380Z,38.83
2023-05-01T01:01:53.806Z,38.99
2023-05-01T01:02:52.271Z,41.25
2023-05-01T01:03:52.248Z,44.31
2023-05-01T01:04:52.267Z,40.61
2023-05-01T01:05:52.199Z,43.83
2023-05-01T01:06:52.186Z,39.48
2023-05-01T01:07:52.178Z,40.93
2023-05-01T01:08:52.163Z,43.51
2023-05-01T01:09:52.150Z,38.99
2023-05-01T01:10:52.142Z,39.48
2023-05-01T01:11:52.129Z,43.34
2023-05-01T01:12:52.130Z,40.77
2023-05-01T01:13:52.110Z,41.57
2023-05-01T01:14:52.114Z,59.62
2023-05-01T01:15:52.088Z,42.06
2023-05-01T01:16:52.114Z,39.96
2023-05-01T01:17:52.106Z,40.44
2023-05-01T01:18:52.055Z,40.61
2023-05-01T01:19:52.037Z,40.28
2023-05-01T01:20:52.044Z,56.40
2023-05-01T01:21:52.023Z,40.28
2023-05-01T01:22:52.029Z,39.64
2023-05-01T01:23:51.998Z,39.48
2023-05-01T01:24:51.992Z,41.25
2023-05-01T01:25:51.978Z,40.28
2023-05-01T01:26:51.976Z,40.28
2023-05-01T01:27:51.970Z,43.67
2023-05-01T01:28:51.963Z,41.41
2023-05-01T01:29:51.934Z,40.28
2023-05-01T01:30:51.948Z,41.89
2023-05-01T01:31:51.916Z,42.22
2023-05-01T01:32:51.987Z,44.15
2023-05-01T01:33:51.904Z,48.18
2023-05-01T01:34:51.886Z,56.24
2023-05-01T01:35:51.868Z,45.92
2023-05-01T01:36:51.861Z,45.76
2023-05-01T01:37:51.852Z,40.28
2023-05-01T01:38:51.865Z,40.93
2023-05-01T01:39:51.879Z,44.79
2023-05-01T01:40:51.821Z,45.92
2023-05-01T01:41:51.810Z,42.38
2023-05-01T01:42:51.806Z,44.31
2023-05-01T01:43:51.802Z,43.67
2023-05-01T01:44:51.789Z,40.61
2023-05-01T01:45:51.847Z,38.83
2023-05-01T01:46:51.761Z,40.44
2023-05-01T01:47:51.797Z,39.96
2023-05-01T01:48:51.755Z,42.70
2023-05-01T01:49:51.730Z,41.89
2023-05-01T01:50:51.721Z,40.44
2023-05-01T01:51:51.713Z,38.99
2023-05-01T01:52:51.701Z,40.77
2023-05-01T01:53:51.703Z,41.73
2023-05-01T01:54:51.680Z,40.44
2023-05-01T01:55:51.669Z,40.28
2023-05-01T01:56:51.658Z,40.28
2023-05-01T01:57:51.659Z,39.64
2023-05-01T01:58:51.663Z,40.12
2023-05-01T01:59:51.628Z,40.44
2023-05-01T02:00:51.612Z,41.09
2023-05-01T02:01:51.688Z,41.57
2023-05-01T02:02:51.725Z,39.96
2023-05-01T02:03:51.709Z,39.16
2023-05-01T02:04:51.603Z,39.48
2023-05-01T02:05:51.564Z,41.25
2023-05-01T02:06:51.572Z,40.61
2023-05-01T02:07:51.570Z,42.06
2023-05-01T02:08:51.557Z,40.28
2023-05-01T02:09:51.523Z,39.16
2023-05-01T02:10:51.514Z,38.83
2023-05-01T02:11:51.507Z,39.48
2023-05-01T02:12:51.500Z,39.64
2023-05-01T02:13:51.487Z,58.97
2023-05-01T02:14:51.484Z,40.12
2023-05-01T02:15:51.487Z,40.61
2023-05-01T02:16:51.457Z,39.48
2023-05-01T02:17:51.489Z,39.48
2023-05-01T02:18:51.445Z,41.09
2023-05-01T02:19:51.421Z,40.12
2023-05-01T02:20:51.414Z,40.61
2023-05-01T02:21:51.397Z,42.38
2023-05-01T02:22:51.393Z,42.38
2023-05-01T02:23:51.398Z,38.83
2023-05-01T02:24:51.378Z,39.96
2023-05-01T02:25:51.357Z,39.32
2023-05-01T02:26:51.350Z,44.63
2023-05-01T02:27:51.347Z,41.25
2023-05-01T02:28:51.351Z,46.41
2023-05-01T02:29:51.314Z,39.32
2023-05-01T02:30:51.313Z,39.32
2023-05-01T02:31:51.340Z,39.32
2023-05-01T02:32:51.335Z,41.09
2023-05-01T02:33:51.287Z,44.79
2023-05-01T02:34:51.274Z,58.65
2023-05-01T02:35:51.254Z,40.77
2023-05-01T02:36:51.249Z,41.25
2023-05-01T02:37:51.246Z,42.38
2023-05-01T02:38:51.302Z,41.09
2023-05-01T02:39:51.215Z,40.28
2023-05-01T02:40:51.207Z,40.28
2023-05-01T02:41:51.202Z,40.12
2023-05-01T02:42:51.182Z,40.44
2023-05-01T02:43:51.184Z,40.44
2023-05-01T02:44:51.165Z,58.81
2023-05-01T02:45:51.153Z,56.56
2023-05-01T02:46:51.156Z,60.59
2023-05-01T02:47:51.218Z,46.25
2023-05-01T02:48:51.138Z,51.88
2023-05-01T02:49:51.113Z,53.01
2023-05-01T02:50:51.100Z,53.82
2023-05-01T02:51:51.093Z,55.59
2023-05-01T02:52:51.075Z,56.24
2023-05-01T02:53:51.078Z,56.40
2023-05-01T02:54:51.063Z,56.56
2023-05-01T02:55:51.066Z,57.36
2023-05-01T02:56:51.035Z,56.07
2023-05-01T02:57:51.029Z,55.91
2023-05-01T02:58:51.027Z,56.56
2023-05-01T02:59:51.012Z,59.46
2023-05-01T03:00:51.028Z,69.29
2023-05-01T03:01:51.116Z,70.90
2023-05-01T03:02:50.993Z,68.96
2023-05-01T03:03:50.989Z,66.55
2023-05-01T03:04:50.956Z,65.42
2023-05-01T03:05:50.950Z,64.61
2023-05-01T03:06:51.074Z,61.23
2023-05-01T03:07:50.931Z,63.81
2023-05-01T03:08:50.927Z,70.09
2023-05-01T03:09:50.920Z,71.70
2023-05-01T03:10:50.891Z,68.16
2023-05-01T03:11:50.882Z,61.55
2023-05-01T03:12:50.872Z,62.04
2023-05-01T03:13:50.877Z,61.23
2023-05-01T03:14:50.849Z,67.19
2023-05-01T03:15:50.874Z,70.58
2023-05-01T03:16:50.935Z,68.00
2023-05-01T03:17:50.856Z,62.52
2023-05-01T03:18:50.818Z,64.94
2023-05-01T03:19:50.795Z,71.06
2023-05-01T03:20:50.786Z,70.25
2023-05-01T03:21:50.777Z,67.35
2023-05-01T03:22:50.766Z,60.91
2023-05-01T03:23:50.775Z,61.87
2023-05-01T03:24:50.885Z,61.71
2023-05-01T03:25:50.735Z,61.39
2023-05-01T03:26:50.727Z,62.52
2023-05-01T03:27:50.741Z,61.23
2023-05-01T03:28:50.716Z,61.23
2023-05-01T03:29:50.695Z,61.23
2023-05-01T03:30:50.691Z,61.71
2023-05-01T03:31:50.726Z,61.23
2023-05-01T03:32:50.685Z,61.87
2023-05-01T03:33:50.675Z,61.23
2023-05-01T03:34:50.697Z,61.39
2023-05-01T03:35:50.632Z,62.36
2023-05-01T03:36:50.623Z,61.39
2023-05-01T03:37:50.615Z,62.84
2023-05-01T03:38:50.632Z,59.46
2023-05-01T03:39:50.604Z,63.16
2023-05-01T03:40:50.581Z,61.23
2023-05-01T03:41:50.579Z,61.23
2023-05-01T03:42:50.559Z,61.87
2023-05-01T03:43:50.562Z,63.16
2023-05-01T03:44:50.544Z,66.71
2023-05-01T03:45:50.566Z,64.29
2023-05-01T03:46:50.517Z,64.94
2023-05-01T03:47:50.647Z,62.20
2023-05-01T03:48:50.502Z,63.97
2023-05-01T03:49:50.491Z,63.65
2023-05-01T03:50:50.476Z,61.71
2023-05-01T03:51:50.467Z,63.33
2023-05-01T03:52:50.457Z,64.29
2023-05-01T03:53:50.610Z,64.61
2023-05-01T03:54:50.436Z,59.62
2023-05-01T03:55:50.424Z,61.87
2023-05-01T03:56:50.416Z,61.87
2023-05-01T03:57:50.406Z,64.61
2023-05-01T03:58:50.395Z,65.26
2023-05-01T03:59:50.399Z,60.75
2023-05-01T04:00:50.380Z,60.91
2023-05-01T04:01:50.417Z,61.23
2023-05-01T04:02:50.610Z,61.55
2023-05-01T04:03:50.437Z,61.71
2023-05-01T04:04:50.343Z,56.24
2023-05-01T04:05:50.326Z,55.59
2023-05-01T04:06:50.393Z,46.25
2023-05-01T04:07:50.313Z,61.23
2023-05-01T04:08:50.289Z,53.01
2023-05-01T04:09:50.298Z,47.05
2023-05-01T04:10:50.271Z,59.30
2023-05-01T04:11:50.296Z,59.14
2023-05-01T04:12:50.326Z,46.73
2023-05-01T04:13:50.249Z,45.76
2023-05-01T04:14:50.244Z,60.59
2023-05-01T04:15:50.272Z,45.92
2023-05-01T04:16:50.216Z,60.59
2023-05-01T04:17:50.298Z,62.68
2023-05-01T04:18:50.195Z,60.42
2023-05-01T04:19:50.203Z,61.23
2023-05-01T04:20:50.180Z,62.04
2023-05-01T04:21:50.167Z,48.66
2023-05-01T04:22:50.177Z,62.04
2023-05-01T04:23:50.153Z,62.36
2023-05-01T04:24:50.148Z,64.61
2023-05-01T04:25:50.129Z,63.49
2023-05-01T04:26:50.121Z,63.33
2023-05-01T04:27:50.106Z,63.65
2023-05-01T04:28:50.099Z,65.58
2023-05-01T04:29:50.095Z,64.45
2023-05-01T04:30:50.078Z,63.81
2023-05-01T04:31:50.089Z,62.68
2023-05-01T04:32:50.077Z,64.78
2023-05-01T04:33:50.049Z,65.90
2023-05-01T04:34:50.044Z,64.45
2023-05-01T04:35:50.029Z,64.29
2023-05-01T04:36:50.008Z,52.69
2023-05-01T04:37:50.007Z,49.47
2023-05-01T04:38:50.000Z,57.04
2023-05-01T04:39:51.115Z,48.98
2023-05-01T04:40:51.087Z,57.85
2023-05-01T04:41:51.082Z,60.10
2023-05-01T04:42:51.071Z,61.23
2023-05-01T04:43:51.056Z,61.71
2023-05-01T04:44:51.063Z,60.59
2023-05-01T04:45:51.049Z,58.65
2023-05-01T04:46:51.070Z,44.63
2023-05-01T04:47:51.040Z,59.94
2023-05-01T04:48:51.010Z,61.07
2023-05-01T04:49:50.992Z,48.50
2023-05-01T04:50:51.994Z,47.05
2023-05-01T04:51:50.983Z,49.47
2023-05-01T04:52:50.970Z,58.01
2023-05-01T04:53:50.969Z,59.78
2023-05-01T04:54:50.961Z,59.94
2023-05-01T04:55:50.957Z,60.10
2023-05-01T04:56:50.936Z,58.97
2023-05-01T04:57:50.922Z,66.55
2023-05-01T04:58:50.916Z,63.81
2023-05-01T04:59:50.919Z,63.16
2023-05-01T05:00:50.898Z,61.71
2023-05-01T05:01:50.905Z,62.84
2023-05-01T05:02:50.925Z,62.68
2023-05-01T05:03:51.077Z,62.20
2023-05-01T05:04:51.033Z,63.49
2023-05-01T05:05:50.856Z,63.97
2023-05-01T05:06:50.853Z,63.81
2023-05-01T05:07:50.823Z,64.78
2023-05-01T05:08:50.820Z,63.49
2023-05-01T05:09:50.820Z,64.13
2023-05-01T05:10:50.798Z,46.25
2023-05-01T05:11:50.789Z,56.56
2023-05-01T05:12:50.782Z,60.75
2023-05-01T05:13:50.767Z,61.07
2023-05-01T05:14:50.755Z,64.29
2023-05-01T05:15:50.754Z,60.91
2023-05-01T05:16:50.870Z,58.17
2023-05-01T05:17:50.780Z,72.67
2023-05-01T05:18:50.722Z,61.71
2023-05-01T05:19:50.707Z,58.97
2023-05-01T05:20:50.734Z,56.88
2023-05-01T05:21:50.685Z,64.45
2023-05-01T05:22:50.694Z,50.43
2023-05-01T05:23:50.676Z,46.73
2023-05-01T05:24:50.654Z,51.56
2023-05-01T05:25:50.659Z,47.21
2023-05-01T05:26:50.632Z,48.82
2023-05-01T05:27:50.628Z,47.86
2023-05-01T05:28:50.621Z,50.92
2023-05-01T05:29:50.615Z,58.17
2023-05-01T05:30:50.608Z,62.68
2023-05-01T05:31:50.649Z,62.36
2023-05-01T05:32:50.597Z,61.71
2023-05-01T05:33:50.574Z,62.84
2023-05-01T05:34:50.556Z,64.45
2023-05-01T05:35:50.559Z,65.74
2023-05-01T05:36:50.545Z,62.68
2023-05-01T05:37:50.527Z,64.29
2023-05-01T05:38:50.520Z,64.13
2023-05-01T05:39:50.516Z,63.16
2023-05-01T05:40:50.524Z,58.65
2023-05-01T05:41:50.497Z,50.92
2023-05-01T05:42:50.482Z,47.37
2023-05-01T05:43:50.475Z,59.30
2023-05-01T05:44:50.466Z,49.47
2023-05-01T05:45:50.504Z,62.04
2023-05-01T05:46:50.441Z,61.55
2023-05-01T05:47:50.504Z,55.11
2023-05-01T05:48:50.431Z,62.36
2023-05-01T05:49:50.475Z,63.49
2023-05-01T05:50:50.408Z,63.16
2023-05-01T05:51:50.395Z,61.55
2023-05-01T05:52:50.386Z,64.45
2023-05-01T05:53:50.378Z,62.68
2023-05-01T05:54:50.365Z,64.61
2023-05-01T05:55:50.369Z,60.26
2023-05-01T05:56:50.356Z,62.20
2023-05-01T05:57:50.332Z,63.00
2023-05-01T05:58:50.346Z,66.06
2023-05-01T05:59:50.313Z,60.75
2023-05-01T06:00:50.336Z,60.75
2023-05-01T06:01:50.305Z,58.81
2023-05-01T06:02:50.324Z,64.29
2023-05-01T06:03:50.299Z,60.75
2023-05-01T06:04:50.274Z,60.75
2023-05-01T06:05:50.279Z,62.36
2023-05-01T06:06:50.283Z,62.04
2023-05-01T06:07:50.231Z,61.71
2023-05-01T06:08:50.227Z,65.74
2023-05-01T06:09:50.241Z,55.91
2023-05-01T06:10:50.199Z,58.17
2023-05-01T06:11:50.280Z,60.75
2023-05-01T06:12:59.321Z,60.26
2023-05-01T06:13:51.188Z,59.94
2023-05-01T06:14:50.173Z,72.83
2023-05-01T06:15:50.240Z,62.68
2023-05-01T06:16:50.145Z,57.69
2023-05-01T06:17:50.224Z,48.98
2023-05-01T06:18:50.127Z,58.65
2023-05-01T06:19:50.282Z,59.62
2023-05-01T06:20:50.183Z,61.07
2023-05-01T06:21:50.170Z,55.27
2023-05-01T06:22:50.160Z,59.78
2023-05-01T06:23:50.116Z,61.71
2023-05-01T06:24:50.147Z,59.30
2023-05-01T06:25:50.101Z,61.23
2023-05-01T06:26:50.156Z,59.30
2023-05-01T06:27:50.139Z,48.66
2023-05-01T06:28:50.030Z,62.20
2023-05-01T06:29:50.032Z,64.45
2023-05-01T06:30:50.029Z,64.45
2023-05-01T06:31:50.187Z,60.26
2023-05-01T06:32:50.093Z,60.42
2023-05-01T06:33:49.985Z,60.42
2023-05-01T06:34:49.976Z,63.81
2023-05-01T06:35:49.985Z,55.59
2023-05-01T06:36:49.954Z,53.01
2023-05-01T06:37:49.945Z,53.82
2023-05-01T06:38:49.940Z,65.58
2023-05-01T06:39:49.922Z,66.06
2023-05-01T06:40:49.920Z,54.95
2023-05-01T06:41:49.903Z,48.34
2023-05-01T06:42:49.888Z,45.60
2023-05-01T06:44:05.127Z,43.99
2023-05-01T06:47:16.821Z,56.07
2023-05-01T06:48:16.424Z,61.39
2023-05-01T06:49:16.432Z,48.18
2023-05-01T06:50:16.413Z,63.33
2023-05-01T06:51:16.392Z,65.58
2023-05-01T06:52:16.396Z,62.36
2023-05-01T06:53:16.370Z,61.55
2023-05-01T06:54:16.366Z,62.84
2023-05-01T06:55:16.368Z,61.55
2023-05-01T06:56:16.352Z,57.85
2023-05-01T06:57:16.324Z,43.51
2023-05-01T06:58:23.517Z,41.73
2023-05-01T06:59:17.302Z,56.72
2023-05-01T07:00:16.302Z,61.55
2023-05-01T07:01:16.406Z,57.69
2023-05-01T07:02:16.328Z,71.87
2023-05-01T07:03:16.283Z,54.95
2023-05-01T07:04:16.255Z,46.41
2023-05-01T07:05:16.252Z,59.46
2023-05-01T07:06:16.313Z,48.34
2023-05-01T07:07:16.256Z,46.41
2023-05-01T07:08:16.217Z,58.17
2023-05-01T07:09:16.229Z,46.41
2023-05-01T07:10:16.359Z,46.25
2023-05-01T07:11:16.177Z,58.49
2023-05-01T07:12:16.200Z,60.26
2023-05-01T07:13:16.186Z,60.10
2023-05-01T07:14:16.188Z,63.33
2023-05-01T07:15:16.144Z,54.30
2023-05-01T07:16:16.180Z,57.20
2023-05-01T07:17:16.121Z,56.56
2023-05-01T07:18:16.112Z,49.79
2023-05-01T07:19:16.102Z,49.47
2023-05-01T07:20:16.087Z,45.28
2023-05-01T07:21:16.089Z,57.04
2023-05-01T07:22:16.074Z,62.84
2023-05-01T07:23:16.049Z,59.94
2023-05-01T07:24:16.053Z,55.43
2023-05-01T07:25:16.044Z,60.91
2023-05-01T07:26:16.048Z,56.88
2023-05-01T07:27:16.056Z,41.09
2023-05-01T07:28:16.001Z,57.04
2023-05-01T07:29:15.994Z,60.26
2023-05-01T07:30:15.993Z,60.59
2023-05-01T07:31:16.023Z,60.75
2023-05-01T07:32:16.040Z,51.24
2023-05-01T07:33:15.989Z,64.13
2023-05-01T07:34:15.948Z,64.45
2023-05-01T07:35:15.954Z,64.94
2023-05-01T07:36:15.940Z,64.61
2023-05-01T07:37:16.065Z,57.04
2023-05-01T07:38:15.910Z,55.91
2023-05-01T07:39:15.885Z,56.72
2023-05-01T07:40:15.986Z,54.46
2023-05-01T07:41:15.880Z,53.98
2023-05-01T07:42:15.874Z,57.69
2023-05-01T07:43:15.846Z,59.46
2023-05-01T07:44:15.845Z,59.30
2023-05-01T07:45:15.824Z,61.39
2023-05-01T07:46:15.898Z,56.72
2023-05-01T07:47:15.799Z,59.78
2023-05-01T07:48:15.830Z,60.26
2023-05-01T07:49:15.782Z,53.33
2023-05-01T07:50:15.779Z,58.97
2023-05-01T07:51:15.772Z,49.31
2023-05-01T07:52:16.507Z,47.37
2023-05-01T07:53:15.740Z,54.46
2023-05-01T07:54:17.585Z,59.30
2023-05-01T07:55:22.583Z,60.59
2023-05-01T07:56:15.721Z,57.04
2023-05-01T07:57:15.695Z,60.42
2023-05-01T07:58:15.715Z,62.20
2023-05-01T07:59:15.677Z,61.87
2023-05-01T08:00:15.678Z,60.10
2023-05-01T08:01:15.666Z,57.85
2023-05-01T08:02:15.649Z,61.71
2023-05-01T08:03:15.870Z,67.19
2023-05-01T08:04:15.740Z,66.06
2023-05-01T08:05:15.604Z,65.58
2023-05-01T08:06:15.641Z,63.49
2023-05-01T08:07:15.587Z,65.10
2023-05-01T08:08:15.637Z,60.42
2023-05-01T08:09:15.560Z,61.23
2023-05-01T08:10:15.565Z,60.26
2023-05-01T08:11:15.557Z,63.33
2023-05-01T08:12:15.552Z,61.39
2023-05-01T08:13:15.555Z,58.65
2023-05-01T08:14:15.525Z,60.26
2023-05-01T08:15:15.512Z,58.81
2023-05-01T08:16:15.559Z,59.30
2023-05-01T08:17:15.484Z,56.72
2023-05-01T08:18:15.468Z,60.75
2023-05-01T08:19:15.466Z,59.46
2023-05-01T08:20:15.487Z,59.94
2023-05-01T08:21:15.460Z,58.97
2023-05-01T08:22:15.446Z,60.26
2023-05-01T08:23:15.414Z,62.20
2023-05-01T08:24:15.409Z,62.52
2023-05-01T08:25:15.391Z,61.07
2023-05-01T08:26:15.407Z,60.91
2023-05-01T08:27:15.377Z,60.91
2023-05-01T08:28:15.376Z,70.42
2023-05-01T08:29:15.355Z,60.42
2023-05-01T08:30:15.345Z,58.49
2023-05-01T08:31:15.361Z,63.97
2023-05-01T08:32:15.324Z,60.26
2023-05-01T08:33:15.328Z,60.91
2023-05-01T08:34:15.313Z,58.01
2023-05-01T08:35:15.305Z,57.36
2023-05-01T08:36:15.301Z,58.81
2023-05-01T08:37:15.276Z,60.10
2023-05-01T08:38:15.296Z,61.55
2023-05-01T08:39:15.266Z,60.75
2023-05-01T08:40:15.253Z,60.26
2023-05-01T08:41:15.238Z,60.75
2023-05-01T08:42:15.216Z,58.17
2023-05-01T08:43:15.231Z,59.62
2023-05-01T08:44:15.191Z,61.55
2023-05-01T08:45:15.182Z,60.75
2023-05-01T08:46:15.239Z,59.46
2023-05-01T08:47:15.159Z,60.26
2023-05-01T08:48:15.164Z,60.10
2023-05-01T08:49:15.149Z,56.72
2023-05-01T08:50:15.126Z,56.40
2023-05-01T08:51:15.122Z,48.34
2023-05-01T08:52:15.148Z,46.25
2023-05-01T08:53:15.097Z,58.49
2023-05-01T08:54:15.092Z,55.43
2023-05-01T08:55:15.106Z,55.43
2023-05-01T08:56:15.074Z,59.62
2023-05-01T08:57:15.051Z,57.85
2023-05-01T08:58:15.080Z,58.49
2023-05-01T08:59:15.047Z,68.32
2023-05-01T09:00:15.026Z,57.04
2023-05-01T09:01:15.064Z,50.76
2023-05-01T09:02:14.994Z,65.42
2023-05-01T09:03:15.037Z,55.43
2023-05-01T09:04:15.032Z,59.30
2023-05-01T09:05:14.966Z,60.75
2023-05-01T09:06:14.975Z,54.95
2023-05-01T09:07:14.937Z,59.14
2023-05-01T09:08:14.928Z,58.65
2023-05-01T09:09:14.921Z,53.82
2023-05-01T09:10:14.914Z,52.21
2023-05-01T09:11:14.909Z,59.30
2023-05-01T09:12:14.892Z,58.65
2023-05-01T09:13:14.891Z,68.16
2023-05-01T09:14:14.872Z,60.75
2023-05-01T09:15:14.859Z,52.69
2023-05-01T09:16:14.884Z,55.43
2023-05-01T09:17:14.840Z,44.47
2023-05-01T09:18:14.922Z,62.84
2023-05-01T09:19:14.817Z,61.07
2023-05-01T09:20:14.825Z,58.33
2023-05-01T09:21:14.809Z,49.47
2023-05-01T09:22:14.795Z,57.85
2023-05-01T09:23:14.779Z,50.60
2023-05-01T09:24:14.773Z,66.71
2023-05-01T09:25:14.775Z,53.82
2023-05-01T09:26:14.767Z,58.17
2023-05-01T09:27:14.800Z,60.59
2023-05-01T09:28:14.730Z,57.20
2023-05-01T09:29:14.726Z,59.94
2023-05-01T09:30:14.741Z,60.10
2023-05-01T09:31:14.815Z,55.11
2023-05-01T09:32:15.893Z,43.83
2023-05-01T09:33:15.850Z,55.27
2023-05-01T09:34:15.796Z,59.14
2023-05-01T09:35:15.814Z,54.95
2023-05-01T09:36:15.959Z,55.91
2023-05-01T09:37:15.789Z,54.14
2023-05-01T09:38:15.760Z,55.75
2023-05-01T09:39:15.769Z,56.07
2023-05-01T09:40:15.772Z,50.11
2023-05-01T09:41:15.760Z,59.62
2023-05-01T09:42:15.734Z,54.79
2023-05-01T09:43:15.704Z,63.00
2023-05-01T09:44:15.737Z,61.87
2023-05-01T09:45:15.700Z,65.26
2023-05-01T09:46:15.747Z,61.87
2023-05-01T09:47:15.673Z,56.72
2023-05-01T09:48:15.693Z,59.94
2023-05-01T09:49:15.648Z,57.36
2023-05-01T09:50:15.696Z,55.59
2023-05-01T09:51:15.623Z,58.33
2023-05-01T09:52:15.642Z,45.60
2023-05-01T09:53:15.612Z,41.41
2023-05-01T09:54:15.593Z,57.52
2023-05-01T09:55:15.626Z,56.56
2023-05-01T09:56:15.598Z,54.30
2023-05-01T09:57:15.629Z,58.49
2023-05-01T09:58:15.608Z,51.88
2023-05-01T09:59:15.608Z,53.98
2023-05-01T10:00:15.588Z,61.71
2023-05-01T10:01:15.590Z,58.01
2023-05-01T10:02:15.570Z,59.46
2023-05-01T10:03:15.620Z,55.91
2023-05-01T10:04:15.543Z,58.33
2023-05-01T10:05:15.541Z,57.04
2023-05-01T10:06:15.516Z,58.65
2023-05-01T10:07:15.522Z,47.37
2023-05-01T10:08:15.482Z,60.59
2023-05-01T10:09:15.553Z,62.84
2023-05-01T10:10:15.495Z,52.69
2023-05-01T10:11:15.476Z,58.33
2023-05-01T10:12:15.443Z,58.17
2023-05-01T10:13:15.429Z,54.14
2023-05-01T10:14:15.412Z,55.75
2023-05-01T10:15:24.484Z,55.43
2023-05-01T10:16:17.448Z,51.56
2023-05-01T10:17:15.442Z,52.37
2023-05-01T10:18:15.495Z,63.97
2023-05-01T10:19:15.378Z,65.10
2023-05-01T10:20:15.362Z,64.45
2023-05-01T10:21:15.379Z,67.35
2023-05-01T10:22:15.414Z,67.03
2023-05-01T10:23:15.378Z,65.42
2023-05-01T10:24:15.383Z,58.49
2023-05-01T10:25:15.336Z,56.40
2023-05-01T10:26:15.322Z,53.98
2023-05-01T10:27:15.326Z,42.38
2023-05-01T10:28:15.293Z,60.42
2023-05-01T10:29:15.307Z,54.79
2023-05-01T10:30:15.285Z,60.75
2023-05-01T10:31:15.309Z,50.92
2023-05-01T10:32:15.276Z,55.75
2023-05-01T10:33:15.308Z,54.95
2023-05-01T10:34:15.239Z,59.30
2023-05-01T10:35:15.346Z,58.81
2023-05-01T10:36:15.232Z,48.66
2023-05-01T10:37:15.231Z,55.11
2023-05-01T10:38:15.202Z,48.82
2023-05-01T10:39:15.195Z,58.17
2023-05-01T10:40:15.232Z,54.95
2023-05-01T10:41:15.168Z,53.17
2023-05-01T10:42:15.209Z,57.52
2023-05-01T10:43:15.181Z,57.69
2023-05-01T10:44:15.147Z,39.48
2023-05-01T10:45:15.114Z,51.72
2023-05-01T10:46:15.147Z,48.98
2023-05-01T10:47:15.121Z,52.85
2023-05-01T10:48:15.098Z,58.33
2023-05-01T10:49:15.111Z,56.72
2023-05-01T10:50:15.299Z,54.95
2023-05-01T10:51:15.082Z,60.42
2023-05-01T10:52:15.097Z,65.10
2023-05-01T10:53:15.095Z,54.46
2023-05-01T10:54:15.052Z,55.91
2023-05-01T10:55:15.054Z,56.24
2023-05-01T10:56:15.039Z,52.53
2023-05-01T10:57:15.064Z,53.17
2023-05-01T10:58:15.034Z,55.27
2023-05-01T10:59:15.033Z,58.33
2023-05-01T11:00:15.057Z,56.40
2023-05-01T11:01:14.995Z,41.25
2023-05-01T11:02:15.070Z,54.14
2023-05-01T11:03:15.011Z,55.75
2023-05-01T11:04:14.969Z,56.24
2023-05-01T11:05:15.068Z,57.69
2023-05-01T11:06:15.052Z,46.73
2023-05-01T11:07:15.047Z,54.14
2023-05-01T11:08:14.938Z,57.85
2023-05-01T11:09:14.940Z,58.17
2023-05-01T11:10:14.924Z,56.07
2023-05-01T11:11:14.909Z,57.85
2023-05-01T11:12:14.899Z,56.72
2023-05-01T11:13:14.876Z,55.75
2023-05-01T11:14:14.848Z,57.20
2023-05-01T11:15:14.863Z,52.69
2023-05-01T11:16:14.896Z,38.51
2023-05-01T11:17:14.858Z,52.69
2023-05-01T11:18:14.866Z,54.14
2023-05-01T11:19:14.802Z,54.95
2023-05-01T11:20:14.815Z,63.49
2023-05-01T11:21:14.772Z,55.59
2023-05-01T11:22:14.782Z,50.11
2023-05-01T11:23:14.927Z,53.98
2023-05-01T11:24:14.739Z,43.34
2023-05-01T11:25:14.754Z,74.12
2023-05-01T11:26:14.739Z,70.09
2023-05-01T11:27:14.738Z,58.01
2023-05-01T11:28:14.734Z,59.30
2023-05-01T11:29:14.713Z,58.17
2023-05-01T11:30:14.710Z,53.33
2023-05-01T11:31:14.717Z,56.88
2023-05-01T11:32:14.931Z,56.88
2023-05-01T11:33:14.716Z,52.69
2023-05-01T11:34:14.678Z,55.27
2023-05-01T11:35:14.692Z,56.40
2023-05-01T11:36:14.694Z,70.09
2023-05-01T11:37:14.617Z,54.14
2023-05-01T11:38:14.596Z,57.85
2023-05-01T11:39:14.578Z,56.07
2023-05-01T11:40:14.584Z,55.43
2023-05-01T11:41:14.583Z,52.21
2023-05-01T11:42:14.641Z,52.85
2023-05-01T11:43:14.621Z,56.88
2023-05-01T11:44:14.574Z,54.79
2023-05-01T11:45:14.560Z,56.72
2023-05-01T11:46:14.577Z,60.10
2023-05-01T11:47:14.544Z,59.30
2023-05-01T11:48:14.653Z,63.33
2023-05-01T11:49:14.522Z,57.85
2023-05-01T11:50:14.504Z,53.33
2023-05-01T11:51:14.497Z,59.30
2023-05-01T11:52:14.507Z,48.34
2023-05-01T11:53:14.511Z,43.67
2023-05-01T11:54:15.745Z,53.17
2023-05-01T11:55:15.459Z,42.86
2023-05-01T11:56:25.367Z,55.11
2023-05-01T11:57:16.453Z,57.36
2023-05-01T11:58:14.394Z,52.21
2023-05-01T11:59:15.440Z,46.08
2023-05-01T12:00:14.409Z,53.01
2023-05-01T12:01:14.391Z,56.40
2023-05-01T12:02:14.461Z,58.49
2023-05-01T12:03:14.695Z,58.01
2023-05-01T12:04:14.614Z,52.21
2023-05-01T12:05:14.382Z,54.62
2023-05-01T12:06:14.426Z,45.28
2023-05-01T12:07:14.352Z,59.46
2023-05-01T12:08:14.332Z,45.44
2023-05-01T12:09:14.314Z,55.75
2023-05-01T12:10:14.301Z,55.27
2023-05-01T12:11:14.269Z,57.85
2023-05-01T12:12:15.313Z,56.40
2023-05-01T12:13:14.316Z,54.62
2023-05-01T12:14:14.300Z,52.05
2023-05-01T12:15:14.310Z,64.29
2023-05-01T12:16:14.254Z,55.27
2023-05-01T12:17:14.326Z,54.14
2023-05-01T12:18:15.359Z,63.33
2023-05-01T12:19:14.217Z,57.52
2023-05-01T12:20:14.246Z,67.19
2023-05-01T12:21:14.224Z,61.71
2023-05-01T12:22:14.234Z,58.65
2023-05-01T12:23:14.196Z,56.56
2023-05-01T12:24:14.195Z,48.98
2023-05-01T12:25:14.185Z,51.88
2023-05-01T12:26:14.151Z,65.74
2023-05-01T12:27:14.185Z,61.07
2023-05-01T12:28:14.144Z,58.01
2023-05-01T12:29:14.125Z,51.72
2023-05-01T12:30:14.127Z,59.30
2023-05-01T12:31:14.131Z,66.23
2023-05-01T12:32:14.109Z,63.00
2023-05-01T12:33:14.087Z,67.03
2023-05-01T12:34:14.078Z,65.42
2023-05-01T12:35:14.120Z,66.39
2023-05-01T12:36:14.038Z,64.13
2023-05-01T12:37:14.042Z,59.94
2023-05-01T12:38:14.040Z,61.07
2023-05-01T12:39:15.023Z,61.39
2023-05-01T12:40:14.095Z,61.39
2023-05-01T12:41:14.043Z,60.42
2023-05-01T12:42:14.020Z,58.81
2023-05-01T12:43:14.005Z,57.36
2023-05-01T12:44:13.981Z,57.85
2023-05-01T12:45:14.990Z,56.88
2023-05-01T12:46:14.006Z,55.59
2023-05-01T12:47:13.956Z,58.49
2023-05-01T12:48:13.993Z,57.85
2023-05-01T12:49:13.927Z,63.16
2023-05-01T12:50:13.884Z,58.33
2023-05-01T12:51:13.919Z,60.59
2023-05-01T12:52:13.899Z,56.56
2023-05-01T12:53:13.887Z,57.36
2023-05-01T12:54:13.861Z,60.75
2023-05-01T12:55:13.876Z,57.20